createdAt,value
2018-03-30T00:00:01.473Z,82.20
2018-03-30T00:02:29.083Z,82.50
2018-03-30T00:04:56.682Z,82.60
2018-03-30T00:07:24.279Z,82.80
2018-03-30T00:09:57.760Z,82.80
2018-03-30T00:12:25.334Z,82.50
2018-03-30T00:14:52.958Z,83.00
2018-03-30T00:17:20.528Z,82.90
2018-03-30T00:19:48.133Z,82.90
2018-03-30T00:22:15.868Z,82.80
2018-03-30T00:24:43.470Z,83.10
2018-03-30T00:27:11.866Z,83.30
2018-03-30T00:29:40.218Z,83.20
2018-03-30T00:32:07.831Z,83.20
2018-03-30T00:34:35.466Z,83.10
2018-03-30T00:37:03.048Z,83.20
2018-03-30T00:39:31.430Z,83.40
2018-03-30T00:41:59.796Z,83.40
2018-03-30T00:44:27.398Z,83.40
2018-03-30T00:46:54.995Z,83.10
2018-03-30T00:49:22.618Z,82.80
2018-03-30T00:51:51.028Z,82.30
2018-03-30T00:54:19.347Z,82.20
2018-03-30T00:56:46.949Z,82.10
2018-03-30T00:59:15.302Z,81.70
2018-03-30T01:01:43.665Z,81.80
2018-03-30T01:04:11.249Z,81.90
2018-03-30T01:06:38.853Z,81.70
2018-03-30T01:09:06.529Z,81.90
2018-03-30T01:11:34.119Z,81.90
2018-03-30T01:14:01.732Z,81.70
2018-03-30T01:16:30.150Z,82.00
2018-03-30T01:18:57.759Z,81.90
2018-03-30T01:21:26.090Z,83.20
2018-03-30T01:23:53.756Z,83.20
2018-03-30T01:26:21.425Z,83.10
2018-03-30T01:28:49.142Z,83.40
2018-03-30T01:31:17.511Z,83.30
2018-03-30T01:33:45.116Z,83.40
2018-03-30T01:36:13.582Z,83.10
2018-03-30T01:38:42.654Z,83.10
2018-03-30T01:41:11.057Z,83.00
2018-03-30T01:43:39.426Z,83.00
2018-03-30T01:46:07.024Z,83.00
2018-03-30T01:48:34.626Z,83.00
2018-03-30T01:51:02.192Z,83.10
2018-03-30T01:53:29.817Z,83.40
2018-03-30T01:55:57.398Z,83.50
2018-03-30T01:58:25.745Z,83.70
2018-03-30T02:00:53.357Z,83.70
2018-03-30T02:03:20.940Z,83.70
2018-03-30T02:05:48.535Z,83.80
2018-03-30T02:08:16.106Z,84.00
2018-03-30T02:10:45.189Z,84.40
2018-03-30T02:13:12.770Z,84.40
2018-03-30T02:15:40.394Z,84.80
2018-03-30T02:18:08.053Z,84.90
2018-03-30T02:20:35.641Z,84.90
2018-03-30T02:23:03.227Z,85.00
2018-03-30T02:25:30.820Z,85.10
2018-03-30T02:27:58.622Z,85.20
2018-03-30T02:30:26.221Z,85.10
2018-03-30T02:32:53.828Z,85.10
2018-03-30T02:35:22.195Z,85.00
2018-03-30T02:37:50.561Z,85.20
2018-03-30T02:40:18.196Z,84.90
2018-03-30T02:42:45.852Z,84.90
2018-03-30T02:45:13.450Z,84.90
2018-03-30T02:47:41.040Z,84.80
2018-03-30T02:50:09.415Z,84.60
2018-03-30T02:52:37.031Z,84.50
2018-03-30T02:55:04.632Z,84.50
2018-03-30T02:57:33.880Z,84.30
2018-03-30T03:00:01.394Z,84.30
2018-03-30T03:02:29.039Z,84.20
2018-03-30T03:04:56.613Z,83.80
2018-03-30T03:07:24.252Z,84.10
2018-03-30T03:09:51.978Z,84.00
2018-03-30T03:12:21.099Z,83.70
2018-03-30T03:14:49.438Z,83.90
2018-03-30T03:17:17.283Z,83.80
2018-03-30T03:19:44.937Z,84.20
2018-03-30T03:22:12.523Z,84.60
2018-03-30T03:24:40.119Z,84.80
2018-03-30T03:27:07.715Z,84.90
2018-03-30T03:29:36.115Z,84.80
2018-03-30T03:32:04.468Z,84.80
2018-03-30T03:34:32.833Z,85.00
2018-03-30T03:37:00.436Z,85.00
2018-03-30T03:39:28.794Z,85.10
2018-03-30T03:41:56.394Z,85.00
2018-03-30T03:44:24.828Z,84.80
2018-03-30T03:46:52.428Z,84.80
2018-03-30T03:49:20.792Z,84.80
2018-03-30T03:51:49.890Z,84.70
2018-03-30T03:54:18.257Z,84.60
2018-03-30T03:56:45.837Z,84.60
2018-03-30T03:59:13.426Z,84.40
2018-03-30T04:01:41.021Z,84.40
2018-03-30T04:04:08.631Z,84.50
2018-03-30T04:06:36.977Z,84.60
2018-03-30T04:09:04.613Z,84.70
2018-03-30T04:11:32.997Z,85.10
2018-03-30T04:14:01.364Z,85.10
2018-03-30T04:16:29.732Z,85.00
2018-03-30T04:18:58.095Z,85.00
2018-03-30T04:21:25.731Z,85.10
2018-03-30T04:23:53.443Z,85.20
2018-03-30T04:26:21.037Z,85.30
2018-03-30T04:28:49.412Z,85.30
2018-03-30T04:31:17.756Z,85.50
2018-03-30T04:33:45.345Z,85.50
2018-03-30T04:36:12.946Z,85.40
2018-03-30T04:38:41.281Z,85.50
2018-03-30T04:41:08.906Z,85.40
2018-03-30T04:43:36.530Z,85.50
2018-03-30T04:46:04.894Z,85.60
2018-03-30T04:48:32.482Z,85.50
2018-03-30T04:51:00.058Z,85.40
2018-03-30T04:53:28.443Z,85.30
2018-03-30T04:55:56.794Z,85.40
2018-03-30T04:58:24.385Z,85.40
2018-03-30T05:00:52.750Z,85.70
2018-03-30T05:03:20.368Z,85.70
2018-03-30T05:05:47.951Z,85.90
2018-03-30T05:08:15.539Z,86.00
2018-03-30T05:10:43.137Z,86.00
2018-03-30T05:13:11.547Z,86.00
2018-03-30T05:15:39.179Z,85.90
2018-03-30T05:18:07.529Z,86.00
2018-03-30T05:20:35.156Z,85.90
2018-03-30T05:23:02.915Z,85.80
2018-03-30T05:25:30.529Z,86.00
2018-03-30T05:27:58.119Z,86.20
2018-03-30T05:30:25.704Z,86.50
2018-03-30T05:32:54.082Z,86.30
2018-03-30T05:35:22.447Z,86.20
2018-03-30T05:37:51.568Z,86.20
2018-03-30T05:40:19.931Z,86.10
2018-03-30T05:42:47.709Z,86.10
2018-03-30T05:45:15.242Z,85.80
2018-03-30T05:47:42.830Z,85.70
2018-03-30T05:50:10.424Z,85.70
2018-03-30T05:52:38.106Z,86.00
2018-03-30T05:55:05.740Z,85.70
2018-03-30T05:57:34.081Z,86.20
2018-03-30T06:00:01.711Z,86.20
2018-03-30T06:02:29.292Z,86.20
2018-03-30T06:04:57.024Z,86.20
2018-03-30T06:07:25.417Z,85.50
2018-03-30T06:09:53.783Z,85.40
2018-03-30T06:12:22.165Z,85.60
2018-03-30T06:14:50.695Z,86.60
2018-03-30T06:17:18.328Z,85.90
2018-03-30T06:19:46.681Z,87.30
2018-03-30T06:22:14.264Z,87.20
2018-03-30T06:24:41.907Z,87.00
2018-03-30T06:27:09.511Z,86.80
2018-03-30T06:29:37.913Z,87.00
2018-03-30T06:32:05.500Z,86.90
2018-03-30T06:34:33.107Z,87.20
2018-03-30T06:37:00.793Z,87.00
2018-03-30T06:39:29.147Z,86.00
2018-03-30T06:41:56.802Z,85.90
2018-03-30T06:44:24.382Z,86.10
2018-03-30T06:46:52.003Z,86.20
2018-03-30T06:49:19.580Z,85.90
2018-03-30T06:51:47.195Z,85.70
2018-03-30T06:54:15.558Z,85.60
2018-03-30T06:56:44.664Z,86.20
2018-03-30T06:59:13.084Z,86.20
2018-03-30T07:01:40.775Z,86.20
2018-03-30T07:04:09.276Z,86.50
2018-03-30T07:06:36.870Z,86.50
2018-03-30T07:09:04.501Z,86.80
2018-03-30T07:11:32.085Z,86.50
2018-03-30T07:13:59.779Z,85.80
2018-03-30T07:16:28.185Z,85.00
2018-03-30T07:18:55.802Z,85.00
2018-03-30T07:21:23.486Z,82.90
2018-03-30T07:23:51.078Z,81.10
2018-03-30T07:26:19.645Z,83.30
2018-03-30T07:28:48.006Z,81.70
2018-03-30T07:31:17.163Z,82.50
2018-03-30T07:33:44.766Z,82.50
2018-03-30T07:36:12.365Z,81.70
2018-03-30T07:38:40.750Z,80.60
2018-03-30T07:41:09.101Z,81.10
2018-03-30T07:43:36.847Z,81.10
2018-03-30T07:46:04.434Z,78.30
2018-03-30T07:48:32.068Z,80.80
2018-03-30T07:50:59.705Z,80.80
2018-03-30T07:53:28.274Z,79.40
2018-03-30T07:55:55.909Z,79.40
2018-03-30T07:58:23.512Z,79.70
2018-03-30T08:00:51.917Z,78.80
2018-03-30T08:03:19.510Z,78.80
2018-03-30T08:05:47.116Z,80.70
2018-03-30T08:08:14.697Z,81.00
2018-03-30T08:10:43.077Z,80.50
2018-03-30T08:13:11.472Z,78.30
2018-03-30T08:15:39.853Z,76.60
2018-03-30T08:18:08.250Z,78.00
2018-03-30T08:20:35.848Z,78.00
2018-03-30T08:23:03.479Z,79.00
2018-03-30T08:25:31.855Z,79.20
2018-03-30T08:28:00.221Z,78.70
2018-03-30T08:30:28.306Z,78.70
2018-03-30T08:32:56.728Z,77.90
2018-03-30T08:35:24.339Z,77.70
2018-03-30T08:37:51.913Z,76.20
2018-03-30T08:40:20.302Z,77.10
2018-03-30T08:42:48.771Z,76.20
2018-03-30T08:45:16.393Z,76.10
2018-03-30T08:47:44.019Z,71.80
2018-03-30T08:50:12.371Z,72.40
2018-03-30T08:52:39.983Z,72.40
2018-03-30T08:55:07.569Z,71.90
2018-03-30T08:57:35.181Z,73.80
2018-03-30T09:00:02.760Z,72.20
2018-03-30T09:02:31.147Z,71.80
2018-03-30T09:04:59.501Z,70.70
2018-03-30T09:07:27.088Z,70.60
2018-03-30T09:09:55.563Z,73.50
2018-03-30T09:12:23.186Z,73.50
2018-03-30T09:14:50.851Z,73.90
2018-03-30T09:17:21.666Z,72.00
2018-03-30T09:19:49.265Z,72.20
2018-03-30T09:22:16.889Z,70.20
2018-03-30T09:24:45.335Z,69.10
2018-03-30T09:27:12.995Z,69.20
2018-03-30T09:29:46.205Z,70.50
2018-03-30T09:32:13.839Z,72.10
2018-03-30T09:34:41.460Z,70.60
2018-03-30T09:37:09.819Z,69.90
2018-03-30T09:39:37.446Z,69.80
2018-03-30T09:42:05.241Z,71.50
2018-03-30T09:44:32.863Z,70.10
2018-03-30T09:47:01.263Z,70.20
2018-03-30T09:49:28.888Z,70.20
2018-03-30T09:51:57.241Z,72.20
2018-03-30T09:54:24.832Z,71.40
2018-03-30T09:56:52.493Z,69.20
2018-03-30T09:59:20.064Z,69.70
2018-03-30T10:01:51.652Z,70.60
2018-03-30T10:04:23.715Z,69.30
2018-03-30T10:06:51.418Z,68.20
2018-03-30T10:09:19.059Z,65.90
2018-03-30T10:11:46.707Z,67.40
2018-03-30T10:14:14.311Z,68.40
2018-03-30T10:16:41.890Z,64.80
2018-03-30T10:19:09.542Z,64.50
2018-03-30T10:21:37.164Z,64.90
2018-03-30T10:24:05.565Z,64.40
2018-03-30T10:26:33.176Z,64.50
2018-03-30T10:29:00.765Z,61.40
2018-03-30T10:31:28.389Z,61.90
2018-03-30T10:33:56.038Z,61.70
2018-03-30T10:36:23.656Z,59.20
2018-03-30T10:38:51.239Z,61.40
2018-03-30T10:41:19.715Z,60.80
2018-03-30T10:43:47.332Z,60.80
2018-03-30T10:46:14.937Z,58.80
2018-03-30T10:48:42.583Z,56.20
2018-03-30T10:51:10.171Z,54.00
2018-03-30T10:53:39.320Z,52.80
2018-03-30T10:56:06.882Z,52.20
2018-03-30T10:58:34.475Z,54.10
2018-03-30T11:01:02.080Z,50.70
2018-03-30T11:03:30.446Z,50.50
2018-03-30T11:05:58.062Z,50.60
2018-03-30T11:08:25.735Z,51.30
2018-03-30T11:10:53.359Z,53.60
2018-03-30T11:13:21.706Z,55.00
2018-03-30T11:15:49.297Z,55.00
2018-03-30T11:18:18.413Z,52.60
2018-03-30T11:20:46.775Z,53.10
2018-03-30T11:23:15.988Z,51.90
2018-03-30T11:25:43.595Z,52.00
2018-03-30T11:28:11.274Z,52.30
2018-03-30T11:30:39.026Z,51.70
2018-03-30T11:33:06.625Z,49.50
2018-03-30T11:35:34.257Z,50.60
2018-03-30T11:38:01.861Z,48.60
2018-03-30T11:40:30.223Z,48.90
2018-03-30T11:42:57.956Z,48.80
2018-03-30T11:45:26.343Z,48.30
2018-03-30T11:47:54.694Z,48.30
2018-03-30T11:50:22.263Z,48.30
2018-03-30T11:52:49.869Z,48.70
2018-03-30T11:55:17.566Z,49.60
2018-03-30T11:57:45.181Z,46.70
2018-03-30T12:00:13.505Z,49.60
2018-03-30T12:02:41.139Z,49.60
2018-03-30T12:05:09.639Z,46.00
2018-03-30T12:07:37.231Z,45.90
2018-03-30T12:10:04.829Z,46.40
2018-03-30T12:12:32.503Z,47.60
2018-03-30T12:15:00.916Z,50.90
2018-03-30T12:17:28.550Z,50.70
2018-03-30T12:19:56.141Z,48.70
2018-03-30T12:22:23.735Z,50.10
2018-03-30T12:24:51.308Z,52.40
2018-03-30T12:27:18.913Z,52.00
2018-03-30T12:29:46.727Z,51.30
2018-03-30T12:32:14.516Z,51.80
2018-03-30T12:34:42.121Z,50.70
2018-03-30T12:37:10.625Z,51.80
2018-03-30T12:39:38.994Z,53.00
2018-03-30T12:42:07.355Z,53.50
2018-03-30T12:44:34.978Z,53.50
2018-03-30T12:47:02.609Z,52.70
2018-03-30T12:49:30.969Z,55.10
2018-03-30T12:51:58.572Z,55.00
2018-03-30T12:54:26.164Z,53.20
2018-03-30T12:56:53.771Z,55.50
2018-03-30T12:59:21.364Z,55.30
2018-03-30T13:01:49.888Z,55.10
2018-03-30T13:04:17.484Z,55.60
2018-03-30T13:06:45.236Z,55.40
2018-03-30T13:09:12.847Z,57.30
2018-03-30T13:11:41.194Z,57.00
2018-03-30T13:14:08.809Z,56.90
2018-03-30T13:16:36.467Z,57.00
2018-03-30T13:19:04.853Z,56.70
2018-03-30T13:21:32.488Z,56.60
2018-03-30T13:24:00.222Z,56.50
2018-03-30T13:26:27.825Z,56.60
2018-03-30T13:28:55.431Z,56.20
2018-03-30T13:31:23.058Z,55.80
2018-03-30T13:33:50.636Z,56.00
2018-03-30T13:36:19.024Z,56.40
2018-03-30T13:38:47.388Z,56.10
2018-03-30T13:41:15.165Z,56.10
2018-03-30T13:43:43.645Z,56.10
2018-03-30T13:46:12.893Z,55.60
2018-03-30T13:48:40.515Z,55.60
2018-03-30T13:54:04.410Z,54.90
2018-03-30T13:56:34.647Z,55.80
2018-03-30T13:59:11.927Z,56.60
2018-03-30T14:01:59.627Z,56.40
2018-03-30T14:04:27.854Z,56.40
2018-03-30T14:07:04.076Z,56.30
2018-03-30T14:09:33.195Z,56.20
2018-03-30T14:12:12.258Z,56.00
2018-03-30T14:14:39.896Z,56.10
2018-03-30T14:20:25.441Z,56.30
2018-03-30T14:22:55.110Z,57.10
2018-03-30T14:25:23.500Z,56.80
2018-03-30T14:28:09.710Z,56.90
2018-03-30T14:30:40.183Z,56.30
2018-03-30T14:33:20.086Z,56.60
2018-03-30T14:36:10.128Z,56.60
2018-03-30T14:38:47.422Z,55.80
2018-03-30T14:41:15.048Z,55.20
2018-03-30T14:43:44.409Z,54.50
2018-03-30T14:46:20.436Z,54.40
2018-03-30T14:48:51.941Z,54.50
2018-03-30T14:51:40.398Z,55.00
2018-03-30T14:54:08.753Z,54.00
2018-03-30T14:56:39.209Z,53.60
2018-03-30T14:59:18.465Z,53.90
2018-03-30T15:01:55.084Z,53.50
2018-03-30T15:04:29.654Z,53.90
2018-03-30T15:07:00.824Z,54.40
2018-03-30T15:09:37.344Z,54.40
2018-03-30T15:12:20.777Z,54.50
2018-03-30T15:14:49.312Z,54.90
2018-03-30T15:17:18.363Z,54.80
2018-03-30T15:19:46.898Z,54.90
2018-03-30T15:22:21.878Z,55.50
2018-03-30T15:25:00.142Z,55.40
2018-03-30T15:27:40.524Z,55.80
2018-03-30T15:30:09.733Z,55.60
2018-03-30T15:32:40.333Z,54.80
2018-03-30T15:35:08.688Z,55.70
2018-03-30T15:37:37.048Z,56.10
2018-03-30T15:40:08.416Z,56.00
2018-03-30T15:42:37.676Z,56.70
2018-03-30T15:45:42.952Z,56.70
2018-03-30T15:48:11.306Z,57.90
2018-03-30T15:50:38.944Z,57.70
2018-03-30T15:53:06.523Z,57.80
2018-03-30T15:55:34.158Z,58.20
2018-03-30T15:58:01.751Z,58.00
2018-03-30T16:00:29.370Z,58.00
2018-03-30T16:02:57.009Z,58.50
2018-03-30T16:05:24.614Z,58.70
2018-03-30T16:07:52.227Z,58.10
2018-03-30T16:10:22.797Z,58.90
2018-03-30T16:12:51.318Z,59.00
2018-03-30T16:15:18.931Z,59.00
2018-03-30T16:17:47.283Z,60.20
2018-03-30T16:20:14.377Z,59.70
2018-03-30T16:22:42.254Z,59.70
2018-03-30T16:25:10.202Z,59.90
2018-03-30T16:27:37.286Z,59.90
2018-03-30T16:30:05.177Z,60.40
2018-03-30T16:32:32.235Z,60.40
2018-03-30T16:34:59.320Z,60.30
2018-03-30T16:37:26.385Z,61.30
2018-03-30T16:39:53.450Z,60.80
2018-03-30T16:42:21.284Z,61.50
2018-03-30T16:44:48.325Z,61.40
2018-03-30T16:47:15.403Z,61.70
2018-03-30T16:49:42.470Z,61.70
2018-03-30T16:52:09.525Z,62.00
2018-03-30T16:54:36.610Z,62.20
2018-03-30T16:57:03.682Z,62.30
2018-03-30T16:59:30.814Z,62.30
2018-03-30T17:01:57.916Z,62.60
2018-03-30T17:04:25.008Z,62.80
2018-03-30T17:06:52.871Z,63.10
2018-03-30T17:09:19.971Z,63.00
2018-03-30T17:11:47.072Z,63.20
2018-03-30T17:14:14.141Z,63.60
2018-03-30T17:16:42.005Z,64.00
2018-03-30T17:19:09.083Z,64.00
2018-03-30T17:21:36.196Z,64.70
2018-03-30T17:24:03.262Z,64.30
2018-03-30T17:26:30.464Z,64.30
2018-03-30T17:28:57.576Z,64.20
2018-03-30T17:31:24.731Z,64.40
2018-03-30T17:33:51.972Z,64.60
2018-03-30T17:36:19.594Z,64.40
2018-03-30T17:38:46.700Z,64.50
2018-03-30T17:41:13.767Z,64.60
2018-03-30T17:43:41.633Z,64.80
2018-03-30T17:46:08.720Z,64.80
2018-03-30T17:48:35.796Z,65.00
2018-03-30T17:51:02.976Z,65.10
2018-03-30T17:53:30.053Z,65.30
2018-03-30T17:55:57.954Z,65.30
2018-03-30T17:58:25.154Z,65.20
2018-03-30T18:00:52.369Z,65.40
2018-03-30T18:03:19.487Z,65.40
2018-03-30T18:05:47.407Z,65.80
2018-03-30T18:08:14.526Z,65.80
2018-03-30T18:10:42.377Z,65.90
2018-03-30T18:13:09.548Z,65.80
2018-03-30T18:15:37.703Z,67.00
2018-03-30T18:18:05.579Z,66.80
2018-03-30T18:20:32.783Z,66.80
2018-03-30T18:22:59.873Z,67.10
2018-03-30T18:25:27.010Z,67.30
2018-03-30T18:27:54.153Z,67.40
2018-03-30T18:30:21.309Z,68.00
2018-03-30T18:32:48.394Z,67.90
2018-03-30T18:35:15.533Z,68.10
2018-03-30T18:37:42.667Z,68.00
2018-03-30T18:40:09.815Z,67.90
2018-03-30T18:42:36.915Z,68.40
2018-03-30T18:45:04.108Z,68.80
2018-03-30T18:47:31.251Z,69.00
2018-03-30T18:49:59.200Z,69.60
2018-03-30T18:52:26.315Z,69.60
2018-03-30T18:54:53.953Z,69.70
2018-03-30T18:57:21.860Z,69.50
2018-03-30T18:59:49.009Z,69.50
2018-03-30T19:02:16.154Z,70.40
2018-03-30T19:04:43.797Z,70.60
2018-03-30T19:07:11.735Z,71.00
2018-03-30T19:09:38.940Z,70.90
2018-03-30T19:12:06.742Z,70.80
2018-03-30T19:14:33.999Z,70.90
2018-03-30T19:17:01.146Z,71.00
2018-03-30T19:19:28.302Z,71.60
2018-03-30T19:21:55.549Z,71.20
2018-03-30T19:24:22.726Z,71.20
2018-03-30T19:26:49.877Z,71.10
2018-03-30T19:29:18.874Z,70.80
2018-03-30T19:31:46.027Z,72.10
2018-03-30T19:34:15.313Z,73.40
2018-03-30T19:36:42.476Z,73.20
2018-03-30T19:39:09.959Z,73.50
2018-03-30T19:41:37.133Z,74.00
2018-03-30T19:44:04.319Z,74.30
2018-03-30T19:46:32.257Z,74.70
2018-03-30T19:49:00.193Z,74.90
2018-03-30T19:51:27.360Z,74.90
2018-03-30T19:53:54.501Z,75.20
2018-03-30T19:56:22.281Z,75.00
2018-03-30T19:58:49.535Z,75.40
2018-03-30T20:01:16.660Z,75.60
2018-03-30T20:03:44.630Z,75.70
2018-03-30T20:06:12.536Z,75.40
2018-03-30T20:08:39.721Z,75.40
2018-03-30T20:11:06.841Z,75.30
2018-03-30T20:13:34.037Z,75.80
2018-03-30T20:16:01.161Z,75.90
2018-03-30T20:18:28.305Z,75.90
2018-03-30T20:20:55.427Z,75.60
2018-03-30T20:23:23.441Z,76.10
2018-03-30T20:25:50.569Z,76.00
2018-03-30T20:28:19.792Z,75.90
2018-03-30T20:30:46.938Z,75.90
2018-03-30T20:33:14.095Z,76.30
2018-03-30T20:35:41.267Z,77.30
2018-03-30T20:38:08.373Z,77.00
2018-03-30T20:40:36.232Z,77.60
2018-03-30T20:43:03.327Z,77.60
2018-03-30T20:45:30.442Z,77.40
2018-03-30T20:47:58.330Z,77.50
2018-03-30T20:50:26.194Z,78.30
2018-03-30T20:52:53.491Z,78.30
2018-03-30T20:55:20.595Z,78.70
2018-03-30T20:57:47.649Z,78.70
2018-03-30T21:00:14.795Z,79.00
2018-03-30T21:02:41.920Z,78.90
2018-03-30T21:05:09.052Z,79.50
2018-03-30T21:07:36.176Z,79.30
2018-03-30T21:10:04.012Z,79.30
2018-03-30T21:12:31.132Z,79.30
2018-03-30T21:14:58.255Z,79.30
2018-03-30T21:17:25.494Z,79.20
2018-03-30T21:19:52.631Z,79.30
2018-03-30T21:22:20.481Z,79.50
2018-03-30T21:24:47.577Z,80.10
2018-03-30T21:27:14.653Z,79.90
2018-03-30T21:29:41.737Z,79.90
2018-03-30T21:32:08.819Z,80.30
2018-03-30T21:34:35.914Z,80.00
2018-03-30T21:37:02.973Z,80.30
2018-03-30T21:39:30.039Z,80.40
2018-03-30T21:41:57.917Z,80.10
2018-03-30T21:44:25.757Z,80.20
2018-03-30T21:46:52.881Z,80.20
2018-03-30T21:49:19.961Z,80.00
2018-03-30T21:51:47.213Z,80.20
2018-03-30T21:54:14.259Z,80.30
2018-03-30T21:56:41.317Z,79.90
2018-03-30T21:59:08.411Z,79.20
2018-03-30T22:01:36.288Z,77.00
2018-03-30T22:04:03.372Z,77.00
2018-03-30T22:06:30.566Z,73.30
2018-03-30T22:08:57.718Z,71.20
2018-03-30T22:11:24.781Z,71.80
2018-03-30T22:13:51.845Z,71.40
2018-03-30T22:16:19.691Z,71.30
2018-03-30T22:18:46.747Z,71.20
2018-03-30T22:21:13.848Z,71.50
2018-03-30T22:23:40.959Z,71.60
2018-03-30T22:26:08.018Z,71.60
2018-03-30T22:28:35.304Z,71.50
2018-03-30T22:31:03.128Z,71.80
2018-03-30T22:33:30.204Z,71.80
2018-03-30T22:35:58.018Z,71.60
2018-03-30T22:38:25.099Z,71.60
2018-03-30T22:40:52.139Z,71.70
2018-03-30T22:43:19.239Z,71.80
2018-03-30T22:45:46.300Z,71.80
2018-03-30T22:48:14.151Z,72.30
2018-03-30T22:50:41.213Z,72.20
2018-03-30T22:53:08.260Z,72.40
2018-03-30T22:55:36.109Z,72.70
2018-03-30T22:58:03.292Z,72.70
2018-03-30T23:00:30.374Z,72.80
2018-03-30T23:02:57.429Z,73.30
2018-03-30T23:05:24.518Z,73.00
2018-03-30T23:07:51.575Z,73.20
2018-03-30T23:10:18.624Z,73.10
2018-03-30T23:12:45.778Z,73.30
2018-03-30T23:15:12.823Z,73.50
2018-03-30T23:17:39.919Z,73.70
2018-03-30T23:20:07.000Z,73.90
2018-03-30T23:22:34.045Z,74.10
2018-03-30T23:25:01.866Z,74.30
2018-03-30T23:27:28.954Z,74.20
2018-03-30T23:29:56.006Z,74.80
2018-03-30T23:32:23.837Z,74.30
2018-03-30T23:34:50.903Z,74.30
2018-03-30T23:37:17.966Z,74.10
2018-03-30T23:39:45.796Z,74.50
2018-03-30T23:42:12.847Z,74.50
2018-03-30T23:44:39.920Z,74.40
2018-03-30T23:47:07.018Z,74.50
2018-03-30T23:49:34.978Z,74.70
2018-03-30T23:52:02.076Z,74.70
2018-03-30T23:54:29.113Z,74.90
2018-03-30T23:56:56.946Z,74.90
2018-03-30T23:59:24.761Z,74.80
